Time;durP1;ratioP1;P1;durP2;ratioP2;P2;SDS_P1;SDS_P2;PMS_P1;PMS_P2;Temp;Humidity;BMP_temperature;BMP_pressure;BME280_temperature;BME280_humidity;BME280_pressure;Samples;Min_cycle;Max_cycle;Signal;HPM_P1;HPM_P2
2024/01/14 00:02:12;;;;;;;41.72;17.15;;;;;;;;;;5083256;28;20490;-77
2024/01/14 00:04:38;;;;;;;42.63;16.27;;;;;;;;;;5080650;28;20024;-76
2024/01/14 00:07:05;;;;;;;36.17;15.55;;;;;;;;;;5089526;28;20028;-76
2024/01/14 00:09:31;;;;;;;34.58;14.80;;;;;;;;;;5077303;28;20054;-77
2024/01/14 00:11:57;;;;;;;36.08;13.93;;;;;;;;;;5084555;28;20459;-77
2024/01/14 00:14:23;;;;;;;41.00;16.02;;;;;;;;;;5085401;28;20095;-76
2024/01/14 00:16:49;;;;;;;41.88;16.15;;;;;;;;;;5075922;28;20043;-77
2024/01/14 00:19:16;;;;;;;54.15;20.83;;;;;;;;;;5080136;28;20041;-76
2024/01/14 00:21:42;;;;;;;44.45;18.42;;;;;;;;;;5081026;28;20036;-76
2024/01/14 00:24:08;;;;;;;40.45;16.92;;;;;;;;;;5072798;28;20479;-77
2024/01/14 00:26:35;;;;;;;45.28;16.92;;;;;;;;;;5078066;28;20033;-77
2024/01/14 00:29:02;;;;;;;37.35;15.02;;;;;;;;;;5089541;28;20035;-76
2024/01/14 00:31:28;;;;;;;47.28;17.63;;;;;;;;;;5090281;28;20039;-78
2024/01/14 00:33:55;;;;;;;47.47;18.45;;;;;;;;;;5102423;28;20018;-76
2024/01/14 00:36:21;;;;;;;52.60;19.40;;;;;;;;;;5088183;28;20032;-76
2024/01/14 00:38:47;;;;;;;55.47;19.55;;;;;;;;;;5090200;28;20032;-76
2024/01/14 00:41:13;;;;;;;51.08;18.98;;;;;;;;;;5088191;28;20032;-78
2024/01/14 00:43:39;;;;;;;43.35;16.90;;;;;;;;;;5099005;28;20028;-76
2024/01/14 00:46:05;;;;;;;38.50;16.88;;;;;;;;;;5093544;28;20035;-77
2024/01/14 00:48:31;;;;;;;40.75;16.55;;;;;;;;;;5081612;28;20087;-76
2024/01/14 00:50:58;;;;;;;39.08;16.05;;;;;;;;;;5073939;28;20029;-77
2024/01/14 00:53:24;;;;;;;43.65;17.27;;;;;;;;;;5084995;28;20031;-77
2024/01/14 00:55:50;;;;;;;45.40;16.90;;;;;;;;;;5095350;28;20050;-77
2024/01/14 00:58:16;;;;;;;41.17;16.55;;;;;;;;;;5088560;28;20040;-76
2024/01/14 01:00:42;;;;;;;41.40;15.52;;;;;;;;;;5087443;28;20047;-76
2024/01/14 01:03:08;;;;;;;36.25;15.13;;;;;;;;;;5079358;28;20020;-76
2024/01/14 01:05:35;;;;;;;40.35;16.13;;;;;;;;;;5097368;28;20069;-76
2024/01/14 01:08:01;;;;;;;41.88;15.88;;;;;;;;;;5087964;28;20030;-77
2024/01/14 01:10:27;;;;;;;41.42;15.90;;;;;;;;;;5082051;28;20090;-77
2024/01/14 01:12:53;;;;;;;37.80;15.38;;;;;;;;;;5097075;28;20039;-77
2024/01/14 01:15:19;;;;;;;34.58;12.88;;;;;;;;;;5088748;28;20049;-76
2024/01/14 01:17:45;;;;;;;45.35;16.90;;;;;;;;;;5097594;28;20032;-76
2024/01/14 01:20:12;;;;;;;39.60;16.60;;;;;;;;;;5088822;28;20024;-78
2024/01/14 01:22:38;;;;;;;39.70;16.45;;;;;;;;;;5089723;28;20028;-76
2024/01/14 01:25:04;;;;;;;39.15;15.75;;;;;;;;;;5097280;28;20123;-77
2024/01/14 01:27:30;;;;;;;38.28;14.98;;;;;;;;;;5089093;28;20032;-77
2024/01/14 01:29:57;;;;;;;39.28;14.15;;;;;;;;;;5097307;28;20028;-78
2024/01/14 01:32:23;;;;;;;34.78;13.82;;;;;;;;;;5080553;28;20459;-77
2024/01/14 01:34:49;;;;;;;32.17;14.32;;;;;;;;;;5092083;28;20028;-78
2024/01/14 01:37:15;;;;;;;34.67;14.73;;;;;;;;;;5088120;28;20028;-77
2024/01/14 01:39:42;;;;;;;51.60;19.83;;;;;;;;;;5087539;28;20030;-77
2024/01/14 01:42:08;;;;;;;46.72;18.25;;;;;;;;;;5087628;28;20029;-77
2024/01/14 01:44:34;;;;;;;44.70;17.13;;;;;;;;;;5090822;28;20028;-76
2024/01/14 01:47:01;;;;;;;40.15;16.15;;;;;;;;;;5090278;28;20052;-77
2024/01/14 01:49:29;;;;;;;40.90;17.52;;;;;;;;;;5092607;28;20455;-76
2024/01/14 01:51:57;;;;;;;42.53;15.90;;;;;;;;;;5091271;28;20050;-76
2024/01/14 01:54:25;;;;;;;40.58;15.85;;;;;;;;;;5085946;28;20089;-76
2024/01/14 01:56:52;;;;;;;53.80;19.63;;;;;;;;;;5087650;28;20028;-77
2024/01/14 01:59:18;;;;;;;46.15;16.67;;;;;;;;;;5094195;28;20039;-77
2024/01/14 02:01:45;;;;;;;46.58;18.10;;;;;;;;;;5088614;28;20037;-76
2024/01/14 02:04:11;;;;;;;45.20;17.95;;;;;;;;;;5090888;28;20049;-78
2024/01/14 02:06:38;;;;;;;43.97;16.65;;;;;;;;;;5090031;28;20024;-77
2024/01/14 02:09:07;;;;;;;38.40;15.05;;;;;;;;;;5084902;28;20029;-77
2024/01/14 02:11:35;;;;;;;40.05;15.77;;;;;;;;;;5093991;28;20032;-76
2024/01/14 02:14:01;;;;;;;36.28;15.40;;;;;;;;;;5085461;28;20039;-77
2024/01/14 02:16:27;;;;;;;37.05;14.48;;;;;;;;;;5083094;28;20036;-76
2024/01/14 02:18:53;;;;;;;36.75;16.33;;;;;;;;;;5083318;28;20490;-77
2024/01/14 02:21:49;;;;;;;46.10;17.17;;;;;;;;;;5084479;28;20032;-76
2024/01/14 02:24:28;;;;;;;42.90;15.68;;;;;;;;;;5073406;28;20070;-77
2024/01/14 02:26:54;;;;;;;35.88;15.50;;;;;;;;;;5082691;28;20123;-77
2024/01/14 02:29:20;;;;;;;44.03;16.38;;;;;;;;;;5094907;28;20036;-76
2024/01/14 02:31:47;;;;;;;40.35;15.35;;;;;;;;;;5096048;28;20048;-77
2024/01/14 02:34:13;;;;;;;37.55;14.05;;;;;;;;;;5084174;28;20040;-77
2024/01/14 02:36:39;;;;;;;32.10;13.13;;;;;;;;;;5074911;28;20028;-75
2024/01/14 02:39:05;;;;;;;37.58;16.77;;;;;;;;;;5083945;28;20036;-75
2024/01/14 02:41:32;;;;;;;33.42;15.63;;;;;;;;;;5075901;28;20024;-76
2024/01/14 02:43:58;;;;;;;39.00;17.60;;;;;;;;;;5074291;28;20123;-77
2024/01/14 02:46:24;;;;;;;39.63;16.67;;;;;;;;;;5082551;28;20051;-76
2024/01/14 02:48:51;;;;;;;39.65;16.08;;;;;;;;;;5081341;28;20024;-77
2024/01/14 02:51:17;;;;;;;32.10;14.55;;;;;;;;;;5085427;28;20043;-76
2024/01/14 02:53:43;;;;;;;35.05;14.75;;;;;;;;;;5094533;28;20341;-76
2024/01/14 02:56:10;;;;;;;34.55;13.90;;;;;;;;;;5076352;28;20032;-76
2024/01/14 02:58:37;;;;;;;36.45;14.98;;;;;;;;;;5088998;28;20445;-76
2024/01/14 03:01:03;;;;;;;32.80;13.85;;;;;;;;;;5085570;28;20021;-76
2024/01/14 03:03:30;;;;;;;40.08;16.58;;;;;;;;;;5081670;28;20052;-76
2024/01/14 03:05:56;;;;;;;37.58;16.60;;;;;;;;;;5090800;28;20028;-77
2024/01/14 03:08:22;;;;;;;41.40;15.43;;;;;;;;;;5091197;28;20040;-77
2024/01/14 03:10:48;;;;;;;37.58;15.15;;;;;;;;;;5075649;28;20036;-76
2024/01/14 03:13:15;;;;;;;32.53;13.32;;;;;;;;;;5084615;28;20547;-76
2024/01/14 03:15:42;;;;;;;39.53;16.52;;;;;;;;;;5086899;28;20086;-76
2024/01/14 03:18:08;;;;;;;39.50;15.65;;;;;;;;;;5089260;28;20054;-76
2024/01/14 03:20:34;;;;;;;39.15;16.17;;;;;;;;;;5079454;28;20090;-76
2024/01/14 03:23:00;;;;;;;39.35;15.95;;;;;;;;;;5086123;28;20398;-76
2024/01/14 03:25:26;;;;;;;36.83;15.65;;;;;;;;;;5080301;28;20035;-76
2024/01/14 03:27:52;;;;;;;36.65;14.45;;;;;;;;;;5105519;22;20070;-77
2024/01/14 03:30:19;;;;;;;34.80;15.70;;;;;;;;;;5089408;28;20020;-76
2024/01/14 03:32:45;;;;;;;37.95;16.13;;;;;;;;;;5094261;28;20035;-77
2024/01/14 03:35:11;;;;;;;38.63;16.02;;;;;;;;;;5094416;28;20091;-77
2024/01/14 03:37:37;;;;;;;33.30;15.38;;;;;;;;;;5094433;28;20024;-76
2024/01/14 03:40:05;;;;;;;46.08;17.05;;;;;;;;;;5091728;28;20026;-77
2024/01/14 03:42:31;;;;;;;37.40;14.65;;;;;;;;;;5095612;28;20016;-77
2024/01/14 03:44:57;;;;;;;32.58;13.75;;;;;;;;;;5093498;28;20020;-77
2024/01/14 03:47:23;;;;;;;37.75;17.58;;;;;;;;;;5093412;28;20470;-77
2024/01/14 03:49:49;;;;;;;37.33;16.08;;;;;;;;;;5075076;28;20040;-77
2024/01/14 03:52:15;;;;;;;40.55;16.40;;;;;;;;;;5093589;28;20020;-76
2024/01/14 03:54:41;;;;;;;40.72;17.13;;;;;;;;;;5094072;28;20042;-77
2024/01/14 03:57:07;;;;;;;41.22;16.73;;;;;;;;;;5094805;28;20031;-78
2024/01/14 03:59:34;;;;;;;39.08;16.48;;;;;;;;;;5096437;28;20031;-77
2024/01/14 04:02:00;;;;;;;39.20;17.40;;;;;;;;;;5074404;28;20027;-78
2024/01/14 04:04:26;;;;;;;43.50;16.00;;;;;;;;;;5102854;28;20043;-78
2024/01/14 04:06:52;;;;;;;41.30;17.38;;;;;;;;;;5083189;28;20161;-78
2024/01/14 04:09:18;;;;;;;42.58;18.17;;;;;;;;;;5089283;28;20043;-78
2024/01/14 04:11:44;;;;;;;36.40;15.18;;;;;;;;;;5103882;28;20035;-77
2024/01/14 04:14:11;;;;;;;33.17;14.43;;;;;;;;;;5089194;28;20032;-78
2024/01/14 04:16:41;;;;;;;41.60;17.95;;;;;;;;;;5099745;28;20028;-78
2024/01/14 04:19:07;;;;;;;36.28;15.60;;;;;;;;;;5079203;28;20124;-77
2024/01/14 04:21:33;;;;;;;43.28;16.23;;;;;;;;;;5078133;28;20052;-78
2024/01/14 04:24:01;;;;;;;46.63;17.67;;;;;;;;;;5095980;28;20028;-77
2024/01/14 04:26:28;;;;;;;42.05;16.58;;;;;;;;;;5076216;28;20073;-77
2024/01/14 04:28:54;;;;;;;35.60;13.55;;;;;;;;;;5079596;28;20035;-79
2024/01/14 04:31:20;;;;;;;31.73;13.32;;;;;;;;;;5105574;28;20067;-78
2024/01/14 04:33:47;;;;;;;37.00;15.23;;;;;;;;;;5104702;28;20032;-80
2024/01/14 04:36:14;;;;;;;43.17;17.08;;;;;;;;;;5099657;28;20536;-79
2024/01/14 04:38:41;;;;;;;43.85;18.23;;;;;;;;;;5094922;28;20470;-77
2024/01/14 04:41:07;;;;;;;39.72;17.75;;;;;;;;;;5093003;28;20428;-77
2024/01/14 04:43:33;;;;;;;42.88;18.15;;;;;;;;;;5093324;28;20367;-77
2024/01/14 04:45:59;;;;;;;39.33;15.98;;;;;;;;;;5092599;28;20032;-77
2024/01/14 04:48:25;;;;;;;37.72;16.23;;;;;;;;;;5092717;28;20446;-76
2024/01/14 04:50:52;;;;;;;36.13;15.52;;;;;;;;;;5091542;28;20070;-77
2024/01/14 04:53:18;;;;;;;44.00;18.13;;;;;;;;;;5085683;28;20078;-77
2024/01/14 04:55:44;;;;;;;45.22;17.85;;;;;;;;;;5092953;28;20115;-76
2024/01/14 04:58:10;;;;;;;47.25;20.33;;;;;;;;;;5092894;28;20086;-77
2024/01/14 05:00:37;;;;;;;51.13;20.42;;;;;;;;;;5093321;28;20039;-77
2024/01/14 05:03:03;;;;;;;52.63;19.10;;;;;;;;;;5092821;28;20017;-76
2024/01/14 05:05:29;;;;;;;54.85;19.63;;;;;;;;;;5075403;28;20081;-77
2024/01/14 05:07:55;;;;;;;59.90;22.67;;;;;;;;;;5092671;28;20082;-77
2024/01/14 05:10:21;;;;;;;52.42;19.95;;;;;;;;;;5079667;28;20186;-78
2024/01/14 05:12:47;;;;;;;56.30;20.60;;;;;;;;;;5097431;28;20028;-78
2024/01/14 05:15:14;;;;;;;48.22;19.63;;;;;;;;;;5085578;28;20074;-77
2024/01/14 05:17:40;;;;;;;42.22;18.52;;;;;;;;;;5075788;28;20466;-78
2024/01/14 05:20:06;;;;;;;49.42;18.92;;;;;;;;;;5090364;28;20085;-78
2024/01/14 05:22:34;;;;;;;54.60;21.83;;;;;;;;;;5095520;28;20069;-79
2024/01/14 05:25:00;;;;;;;47.05;19.48;;;;;;;;;;5101487;28;20064;-78
2024/01/14 05:27:26;;;;;;;51.13;20.00;;;;;;;;;;5097634;28;20028;-80
2024/01/14 05:29:52;;;;;;;53.30;20.05;;;;;;;;;;5105872;28;20020;-77
2024/01/14 05:32:18;;;;;;;52.83;20.30;;;;;;;;;;5112348;28;20041;-76
2024/01/14 05:34:45;;;;;;;56.58;22.17;;;;;;;;;;5089594;28;20047;-76
2024/01/14 05:37:12;;;;;;;48.28;19.58;;;;;;;;;;5071665;28;20106;-77
2024/01/14 05:39:38;;;;;;;57.05;21.40;;;;;;;;;;5097616;28;20032;-76
2024/01/14 05:42:05;;;;;;;56.33;20.23;;;;;;;;;;5076694;28;20032;-76
2024/01/14 05:44:31;;;;;;;54.60;20.40;;;;;;;;;;5092552;28;20024;-76
2024/01/14 05:46:57;;;;;;;59.40;22.15;;;;;;;;;;5073703;28;20020;-76
2024/01/14 05:49:23;;;;;;;54.03;21.88;;;;;;;;;;5089730;28;20024;-77
2024/01/14 05:51:50;;;;;;;60.20;22.85;;;;;;;;;;5094620;28;20682;-76
2024/01/14 05:54:16;;;;;;;54.45;22.23;;;;;;;;;;5094655;28;20024;-77
2024/01/14 05:56:42;;;;;;;51.95;21.35;;;;;;;;;;5076421;28;20035;-77
2024/01/14 05:59:08;;;;;;;49.15;19.17;;;;;;;;;;5088934;28;20032;-77
2024/01/14 06:01:34;;;;;;;53.33;20.77;;;;;;;;;;5087511;28;20028;-77
2024/01/14 06:04:01;;;;;;;50.40;22.08;;;;;;;;;;5104105;28;20007;-77
2024/01/14 06:06:27;;;;;;;45.15;18.60;;;;;;;;;;5117682;28;20021;-76
2024/01/14 06:08:53;;;;;;;43.25;17.73;;;;;;;;;;5117686;28;20020;-76
2024/01/14 06:11:19;;;;;;;47.30;18.27;;;;;;;;;;5105579;28;20036;-77
2024/01/14 06:13:45;;;;;;;45.45;18.92;;;;;;;;;;5096616;28;20032;-77
2024/01/14 06:16:12;;;;;;;50.90;19.15;;;;;;;;;;5090655;28;20038;-76
2024/01/14 06:18:39;;;;;;;52.28;19.45;;;;;;;;;;5100886;28;20036;-76
2024/01/14 06:21:06;;;;;;;46.70;19.98;;;;;;;;;;5118821;28;20069;-76
2024/01/14 06:23:32;;;;;;;49.70;19.63;;;;;;;;;;5119445;28;20211;-76
2024/01/14 06:25:58;;;;;;;45.22;19.60;;;;;;;;;;5101977;28;20058;-77
2024/01/14 06:28:24;;;;;;;49.58;18.60;;;;;;;;;;5096583;28;20586;-76
2024/01/14 06:30:50;;;;;;;48.63;18.98;;;;;;;;;;5110841;28;20155;-76
2024/01/14 06:33:16;;;;;;;47.28;19.08;;;;;;;;;;5102934;28;20028;-76
2024/01/14 06:35:42;;;;;;;41.28;17.20;;;;;;;;;;5094849;28;20042;-76
2024/01/14 06:38:09;;;;;;;46.97;18.95;;;;;;;;;;5078076;28;20159;-76
2024/01/14 06:40:35;;;;;;;41.35;17.05;;;;;;;;;;5099840;28;20028;-75
2024/01/14 06:43:02;;;;;;;44.88;18.30;;;;;;;;;;5105044;28;20024;-76
2024/01/14 06:45:28;;;;;;;39.15;15.80;;;;;;;;;;5093305;28;20027;-77
2024/01/14 06:47:54;;;;;;;47.13;20.48;;;;;;;;;;5078489;28;20028;-77
2024/01/14 06:50:20;;;;;;;52.67;19.70;;;;;;;;;;5093786;28;20050;-77
2024/01/14 06:52:46;;;;;;;43.92;19.27;;;;;;;;;;5095220;28;20035;-78
2024/01/14 06:55:13;;;;;;;40.85;17.63;;;;;;;;;;5076348;28;20486;-76
2024/01/14 06:57:39;;;;;;;49.50;19.60;;;;;;;;;;5093415;28;20463;-77
2024/01/14 07:00:08;;;;;;;48.08;20.15;;;;;;;;;;5101601;28;20024;-78
2024/01/14 07:02:34;;;;;;;44.90;18.05;;;;;;;;;;5097420;28;20126;-76
2024/01/14 07:05:00;;;;;;;48.35;18.92;;;;;;;;;;5094478;28;20042;-76
2024/01/14 07:07:27;;;;;;;42.47;17.83;;;;;;;;;;5092559;28;20032;-76
2024/01/14 07:09:53;;;;;;;43.95;17.95;;;;;;;;;;5088323;28;20016;-77
2024/01/14 07:12:19;;;;;;;39.33;16.88;;;;;;;;;;5093769;28;20607;-78
2024/01/14 07:14:45;;;;;;;48.00;18.23;;;;;;;;;;5075794;28;20520;-77
2024/01/14 07:17:11;;;;;;;49.38;20.25;;;;;;;;;;5093950;28;20028;-76
2024/01/14 07:19:37;;;;;;;43.55;17.77;;;;;;;;;;5085839;28;20081;-76
2024/01/14 07:22:06;;;;;;;46.20;18.67;;;;;;;;;;5097553;28;20024;-78
2024/01/14 07:24:32;;;;;;;56.50;19.67;;;;;;;;;;5093253;28;20154;-78
2024/01/14 07:26:58;;;;;;;46.22;18.63;;;;;;;;;;5102034;28;20619;-77
2024/01/14 07:29:24;;;;;;;51.03;19.80;;;;;;;;;;5094137;28;20596;-78
2024/01/14 07:39:53;;;;;;;38.40;15.18;;;;;;;;;;5129939;27;20103;-78
2024/01/14 07:42:19;;;;;;;46.22;18.67;;;;;;;;;;5130996;28;20026;-79
2024/01/14 07:44:46;;;;;;;37.75;15.00;;;;;;;;;;5136812;28;20031;-79
2024/01/14 07:47:12;;;;;;;44.72;16.92;;;;;;;;;;5126726;28;20035;-79
2024/01/14 07:49:38;;;;;;;37.63;15.45;;;;;;;;;;5108131;28;20023;-79
2024/01/14 07:52:05;;;;;;;36.92;15.05;;;;;;;;;;5125145;28;20086;-79
2024/01/14 07:54:31;;;;;;;41.22;16.25;;;;;;;;;;5127437;28;20084;-79
2024/01/14 07:56:57;;;;;;;43.20;18.02;;;;;;;;;;5101323;28;20024;-79
2024/01/14 07:59:23;;;;;;;46.13;18.92;;;;;;;;;;5125913;28;20043;-79
2024/01/14 08:01:49;;;;;;;41.55;17.75;;;;;;;;;;5123311;28;20027;-78
2024/01/14 08:04:17;;;;;;;32.88;15.48;;;;;;;;;;5122945;28;20035;-78
2024/01/14 08:06:43;;;;;;;44.22;15.98;;;;;;;;;;5119834;28;20035;-81
2024/01/14 08:09:12;;;;;;;39.85;15.50;;;;;;;;;;5132124;28;20047;-80
2024/01/14 08:11:38;;;;;;;43.20;16.88;;;;;;;;;;5108524;28;20099;-77
2024/01/14 08:14:04;;;;;;;43.60;16.35;;;;;;;;;;5093458;28;20028;-78
2024/01/14 08:16:31;;;;;;;37.70;15.73;;;;;;;;;;5119680;28;20020;-79
2024/01/14 08:18:57;;;;;;;42.67;16.60;;;;;;;;;;5113110;28;20193;-79
2024/01/14 08:21:23;;;;;;;38.97;15.23;;;;;;;;;;5106432;28;20479;-78
2024/01/14 08:23:49;;;;;;;33.13;13.40;;;;;;;;;;5107320;28;20030;-79
2024/01/14 08:26:15;;;;;;;32.90;14.45;;;;;;;;;;5108654;28;20023;-79
2024/01/14 08:28:41;;;;;;;38.47;15.95;;;;;;;;;;5112534;28;20024;-79
2024/01/14 08:31:07;;;;;;;38.88;16.40;;;;;;;;;;5106108;28;20108;-74
2024/01/14 08:33:34;;;;;;;39.38;15.90;;;;;;;;;;5110552;28;20133;-75
2024/01/14 08:36:00;;;;;;;40.95;17.30;;;;;;;;;;5110064;28;20402;-75
2024/01/14 08:38:26;;;;;;;36.55;16.02;;;;;;;;;;5110442;28;20044;-76
2024/01/14 08:40:52;;;;;;;38.90;15.98;;;;;;;;;;5108965;28;20106;-76
2024/01/14 08:43:19;;;;;;;31.60;14.38;;;;;;;;;;5120288;28;20073;-80
2024/01/14 08:45:45;;;;;;;32.85;14.60;;;;;;;;;;5120865;28;20389;-76
2024/01/14 08:48:13;;;;;;;31.63;13.18;;;;;;;;;;5107460;28;20382;-77
2024/01/14 08:50:39;;;;;;;31.50;13.20;;;;;;;;;;5098404;28;20464;-76
2024/01/14 08:53:05;;;;;;;25.90;12.30;;;;;;;;;;5095692;28;20032;-76
2024/01/14 08:55:31;;;;;;;24.55;11.48;;;;;;;;;;5099356;28;20080;-75
2024/01/14 08:57:57;;;;;;;33.70;13.80;;;;;;;;;;5095295;28;20561;-75
2024/01/14 09:00:23;;;;;;;31.48;13.40;;;;;;;;;;5094845;28;20111;-76
2024/01/14 09:02:49;;;;;;;25.77;12.63;;;;;;;;;;5095438;28;20504;-75
2024/01/14 09:05:16;;;;;;;26.48;11.77;;;;;;;;;;5095008;28;20167;-76
2024/01/14 09:07:42;;;;;;;31.27;13.10;;;;;;;;;;5095691;28;20417;-76
2024/01/14 09:10:09;;;;;;;29.13;12.65;;;;;;;;;;5098925;28;20092;-77
2024/01/14 09:12:35;;;;;;;32.78;14.57;;;;;;;;;;5099375;28;20020;-76
2024/01/14 09:15:01;;;;;;;31.05;14.38;;;;;;;;;;5094939;28;20051;-76
2024/01/14 09:17:27;;;;;;;28.77;14.35;;;;;;;;;;5100372;28;20059;-75
2024/01/14 09:19:53;;;;;;;32.10;14.55;;;;;;;;;;5098413;28;20036;-76
2024/01/14 09:22:19;;;;;;;31.67;14.25;;;;;;;;;;5098977;28;20028;-76
2024/01/14 09:24:45;;;;;;;28.92;11.98;;;;;;;;;;5098880;28;20035;-76
2024/01/14 09:27:13;;;;;;;31.75;13.85;;;;;;;;;;5096965;28;20429;-76
2024/01/14 09:29:39;;;;;;;34.40;14.77;;;;;;;;;;5074401;28;20035;-76
2024/01/14 09:32:06;;;;;;;36.95;16.02;;;;;;;;;;5095923;28;20046;-77
2024/01/14 09:34:32;;;;;;;32.42;14.10;;;;;;;;;;5074397;28;20024;-76
2024/01/14 09:36:58;;;;;;;33.55;14.73;;;;;;;;;;5095075;28;20024;-76
2024/01/14 09:39:24;;;;;;;31.65;13.38;;;;;;;;;;5094755;28;20043;-76
2024/01/14 09:41:50;;;;;;;28.98;13.40;;;;;;;;;;5094258;28;20043;-76
2024/01/14 09:44:16;;;;;;;27.95;12.80;;;;;;;;;;5102724;28;20027;-76
2024/01/14 09:46:43;;;;;;;31.48;13.80;;;;;;;;;;5108693;28;20031;-75
2024/01/14 09:49:10;;;;;;;33.80;15.32;;;;;;;;;;5099782;28;20039;-76
2024/01/14 09:51:37;;;;;;;29.40;14.68;;;;;;;;;;5064445;28;20123;-76
2024/01/14 09:54:03;;;;;;;26.55;12.63;;;;;;;;;;5075186;28;20069;-76
2024/01/14 09:56:33;;;;;;;27.42;12.85;;;;;;;;;;5095017;28;20028;-77
2024/01/14 09:59:03;;;;;;;24.50;12.23;;;;;;;;;;5076322;28;20542;-75
2024/01/14 10:01:33;;;;;;;27.33;12.15;;;;;;;;;;5095468;28;20517;-77
2024/01/14 10:04:09;;;;;;;31.73;13.90;;;;;;;;;;5106051;28;20024;-77
2024/01/14 10:06:43;;;;;;;30.83;13.82;;;;;;;;;;5094624;28;20032;-77
2024/01/14 10:09:13;;;;;;;32.58;14.20;;;;;;;;;;5110144;28;20020;-77
2024/01/14 10:11:39;;;;;;;31.83;14.35;;;;;;;;;;5097337;28;20038;-78
2024/01/14 10:14:05;;;;;;;30.40;13.85;;;;;;;;;;5109108;28;20027;-77
2024/01/14 10:16:31;;;;;;;30.27;14.15;;;;;;;;;;5124903;28;20039;-75
2024/01/14 10:18:57;;;;;;;30.95;14.93;;;;;;;;;;5100324;28;20028;-76
2024/01/14 10:21:25;;;;;;;30.30;14.93;;;;;;;;;;5076606;28;20395;-77
2024/01/14 10:23:51;;;;;;;28.55;13.70;;;;;;;;;;5100658;28;20032;-76
2024/01/14 10:26:22;;;;;;;31.60;15.18;;;;;;;;;;5100225;28;20024;-77
2024/01/14 10:28:48;;;;;;;32.97;14.48;;;;;;;;;;5095971;28;20453;-76
2024/01/14 10:31:14;;;;;;;30.83;13.60;;;;;;;;;;5095476;28;20024;-77
2024/01/14 10:33:40;;;;;;;31.90;14.90;;;;;;;;;;5097573;28;20068;-77
2024/01/14 10:36:10;;;;;;;27.52;13.15;;;;;;;;;;5097958;28;20084;-78
2024/01/14 10:38:36;;;;;;;29.13;13.82;;;;;;;;;;5082443;28;20070;-77
2024/01/14 10:41:03;;;;;;;25.80;12.05;;;;;;;;;;5102714;28;20058;-77
2024/01/14 10:43:29;;;;;;;36.78;15.70;;;;;;;;;;5100537;28;20483;-78
2024/01/14 10:45:58;;;;;;;34.80;14.95;;;;;;;;;;5109938;28;20035;-75
2024/01/14 10:48:27;;;;;;;32.35;15.43;;;;;;;;;;5104639;28;20071;-77
2024/01/14 10:50:57;;;;;;;24.52;12.52;;;;;;;;;;5080631;28;20028;-78
2024/01/14 10:53:24;;;;;;;24.20;12.02;;;;;;;;;;5077597;28;20039;-77
2024/01/14 10:56:10;;;;;;;27.70;13.00;;;;;;;;;;5069426;28;20028;-77
2024/01/14 10:58:40;;;;;;;26.38;12.63;;;;;;;;;;5095746;28;20032;-74
2024/01/14 11:01:07;;;;;;;27.50;12.43;;;;;;;;;;5105344;28;20032;-74
2024/01/14 11:03:34;;;;;;;24.83;11.20;;;;;;;;;;5096218;28;20471;-78
2024/01/14 11:06:00;;;;;;;27.75;12.70;;;;;;;;;;5099879;28;20028;-77
2024/01/14 11:08:27;;;;;;;36.88;14.15;;;;;;;;;;5101155;28;20083;-77
2024/01/14 11:10:54;;;;;;;28.55;12.50;;;;;;;;;;5096640;28;20032;-77
2024/01/14 11:13:26;;;;;;;27.48;12.18;;;;;;;;;;5095976;28;20028;-76
2024/01/14 11:16:00;;;;;;;25.42;11.18;;;;;;;;;;5109416;28;20047;-79
2024/01/14 11:18:50;;;;;;;32.83;14.10;;;;;;;;;;5113971;28;20099;-78
2024/01/14 11:21:34;;;;;;;27.42;13.75;;;;;;;;;;5069626;28;20119;-77
2024/01/14 11:24:00;;;;;;;26.35;12.63;;;;;;;;;;5096035;28;20032;-76
2024/01/14 11:26:27;;;;;;;24.20;11.98;;;;;;;;;;5102688;28;20027;-77
2024/01/14 11:28:54;;;;;;;24.92;11.57;;;;;;;;;;5109055;28;20024;-77
2024/01/14 11:31:21;;;;;;;24.05;11.45;;;;;;;;;;5111645;28;20042;-76
2024/01/14 11:33:48;;;;;;;23.17;11.02;;;;;;;;;;5112584;28;20034;-77
2024/01/14 11:36:34;;;;;;;23.70;10.68;;;;;;;;;;5098358;28;20028;-77
2024/01/14 11:39:05;;;;;;;24.20;10.68;;;;;;;;;;5108727;28;20028;-77
2024/01/14 11:41:35;;;;;;;32.33;14.40;;;;;;;;;;5104964;28;20046;-76
2024/01/14 11:44:05;;;;;;;33.97;14.55;;;;;;;;;;5097005;28;20397;-77
2024/01/14 11:46:34;;;;;;;27.30;12.52;;;;;;;;;;5108156;28;20087;-77
2024/01/14 11:49:03;;;;;;;26.42;12.70;;;;;;;;;;5101234;28;20021;-78
2024/01/14 11:51:32;;;;;;;30.02;13.27;;;;;;;;;;5102773;28;20020;-77
2024/01/14 11:54:00;;;;;;;39.75;16.98;;;;;;;;;;5102470;28;20012;-77
2024/01/14 11:56:30;;;;;;;38.13;16.17;;;;;;;;;;5108372;28;20103;-79
2024/01/14 11:58:59;;;;;;;32.22;14.25;;;;;;;;;;5109246;28;20036;-76
2024/01/14 12:01:28;;;;;;;30.33;14.25;;;;;;;;;;5101857;28;20554;-77
2024/01/14 12:04:04;;;;;;;33.10;14.20;;;;;;;;;;5098393;28;20489;-78
2024/01/14 12:06:39;;;;;;;30.58;12.52;;;;;;;;;;5098668;28;20078;-78
2024/01/14 12:09:06;;;;;;;25.77;11.75;;;;;;;;;;5092327;28;20028;-76
2024/01/14 12:11:33;;;;;;;27.58;13.50;;;;;;;;;;5103100;28;20103;-79
2024/01/14 12:13:59;;;;;;;23.05;11.43;;;;;;;;;;5104207;28;20054;-78
2024/01/14 12:16:28;;;;;;;27.15;12.30;;;;;;;;;;5106431;28;20059;-79
2024/01/14 12:18:54;;;;;;;23.80;12.07;;;;;;;;;;5076131;28;20032;-78
2024/01/14 12:21:20;;;;;;;21.27;10.00;;;;;;;;;;5092663;28;20024;-77
2024/01/14 12:23:47;;;;;;;21.67;10.43;;;;;;;;;;5075014;28;20048;-78
2024/01/14 12:26:13;;;;;;;18.45;9.88;;;;;;;;;;5097013;28;20073;-78
2024/01/14 12:28:40;;;;;;;19.55;9.93;;;;;;;;;;5098939;28;20509;-76
2024/01/14 12:31:06;;;;;;;22.42;10.77;;;;;;;;;;5098446;28;20424;-78
2024/01/14 12:33:33;;;;;;;20.95;11.15;;;;;;;;;;5099278;28;20028;-77
2024/01/14 12:36:00;;;;;;;19.70;9.55;;;;;;;;;;5096580;28;20012;-79
2024/01/14 12:38:26;;;;;;;20.60;9.45;;;;;;;;;;5101222;28;20035;-78
2024/01/14 12:40:54;;;;;;;19.17;9.23;;;;;;;;;;5099505;28;20028;-78
2024/01/14 12:43:20;;;;;;;24.85;11.77;;;;;;;;;;5101423;28;20390;-77
2024/01/14 12:45:47;;;;;;;21.90;10.43;;;;;;;;;;5111684;28;20028;-77
2024/01/14 12:48:13;;;;;;;23.77;10.93;;;;;;;;;;5102193;28;20077;-77
2024/01/14 12:50:39;;;;;;;23.58;10.48;;;;;;;;;;5090787;28;20028;-77
2024/01/14 12:53:07;;;;;;;18.17;9.18;;;;;;;;;;5082913;28;20028;-79
2024/01/14 12:55:34;;;;;;;19.92;10.80;;;;;;;;;;5101213;28;20024;-77
2024/01/14 12:58:00;;;;;;;18.17;9.75;;;;;;;;;;5097454;28;20028;-77
2024/01/14 13:00:27;;;;;;;19.92;9.93;;;;;;;;;;5097935;28;20028;-77
2024/01/14 13:02:54;;;;;;;30.50;13.02;;;;;;;;;;5099184;28;20032;-76
2024/01/14 13:05:20;;;;;;;22.65;12.60;;;;;;;;;;5095894;28;20028;-77
2024/01/14 13:07:46;;;;;;;23.77;12.00;;;;;;;;;;5098319;28;20024;-77
2024/01/14 13:10:12;;;;;;;21.70;10.75;;;;;;;;;;5099110;28;20075;-75
2024/01/14 13:12:39;;;;;;;25.00;11.68;;;;;;;;;;5095330;28;20031;-76
2024/01/14 13:15:05;;;;;;;20.85;11.00;;;;;;;;;;5105949;28;20030;-75
2024/01/14 13:17:33;;;;;;;22.67;10.50;;;;;;;;;;5090422;28;20106;-76
2024/01/14 13:19:59;;;;;;;24.13;10.15;;;;;;;;;;5081270;28;20047;-76
2024/01/14 13:22:25;;;;;;;22.15;10.68;;;;;;;;;;5098495;28;20127;-77
2024/01/14 13:24:52;;;;;;;19.52;10.70;;;;;;;;;;5104407;28;20059;-77
2024/01/14 13:27:18;;;;;;;18.92;10.52;;;;;;;;;;5101188;28;20024;-77
2024/01/14 13:29:46;;;;;;;16.08;8.88;;;;;;;;;;5093447;28;20103;-77
2024/01/14 13:32:12;;;;;;;14.88;8.00;;;;;;;;;;5095949;28;20472;-76
2024/01/14 13:34:38;;;;;;;16.00;7.90;;;;;;;;;;5094869;28;20443;-77
2024/01/14 13:37:04;;;;;;;16.80;7.55;;;;;;;;;;5095728;28;20363;-77
2024/01/14 13:39:30;;;;;;;18.58;9.25;;;;;;;;;;5094268;28;20032;-76
2024/01/14 13:41:57;;;;;;;18.77;9.55;;;;;;;;;;5094211;28;20144;-76
2024/01/14 13:44:24;;;;;;;16.45;8.30;;;;;;;;;;5076350;28;20047;-77
2024/01/14 13:46:50;;;;;;;18.55;8.82;;;;;;;;;;5097041;28;20027;-76
2024/01/14 13:49:16;;;;;;;21.60;11.02;;;;;;;;;;5093246;28;20028;-76
2024/01/14 13:51:42;;;;;;;22.27;10.25;;;;;;;;;;5097549;28;20024;-77
2024/01/14 13:54:11;;;;;;;19.88;10.10;;;;;;;;;;5091251;28;20025;-77
2024/01/14 13:56:39;;;;;;;18.25;9.40;;;;;;;;;;5079453;28;20478;-76
2024/01/14 13:59:05;;;;;;;19.15;10.10;;;;;;;;;;5090238;28;20050;-76
2024/01/14 14:01:31;;;;;;;28.52;12.43;;;;;;;;;;5091706;28;20024;-77
2024/01/14 14:03:58;;;;;;;24.42;11.68;;;;;;;;;;5091530;28;20024;-80
2024/01/14 14:06:24;;;;;;;20.60;10.35;;;;;;;;;;5082810;28;20024;-81
2024/01/14 14:08:52;;;;;;;24.02;10.90;;;;;;;;;;5082197;28;20036;-78
2024/01/14 14:11:18;;;;;;;20.13;10.13;;;;;;;;;;5111626;28;20028;-78
2024/01/14 14:13:45;;;;;;;21.38;11.20;;;;;;;;;;5106285;28;20586;-80
2024/01/14 14:16:11;;;;;;;18.98;10.10;;;;;;;;;;5099110;28;20119;-80
2024/01/14 14:18:37;;;;;;;17.73;9.05;;;;;;;;;;5099090;28;20024;-81
2024/01/14 14:21:03;;;;;;;19.92;8.98;;;;;;;;;;5098816;28;20023;-77
2024/01/14 14:23:31;;;;;;;16.85;8.65;;;;;;;;;;5080854;28;20187;-78
2024/01/14 14:25:57;;;;;;;18.48;9.57;;;;;;;;;;5099700;28;20027;-78